createdAt,value
2018-02-13T00:01:50.520Z,99509.44
2018-02-13T00:04:18.358Z,99510.38
2018-02-13T00:06:47.178Z,99510.19
2018-02-13T00:09:14.858Z,99496.55
2018-02-13T00:11:42.515Z,99505.56
2018-02-13T00:14:10.923Z,99506.33
2018-02-13T00:16:39.830Z,99502.45
2018-02-13T00:19:08.066Z,99501.67
2018-02-13T00:21:36.251Z,99498.17
2018-02-13T00:24:03.774Z,99499.48
2018-02-13T00:26:33.889Z,99493.01
2018-02-13T00:29:01.779Z,99486.63
2018-02-13T00:31:30.779Z,99481.98
2018-02-13T00:33:59.285Z,99498.66
2018-02-13T00:36:26.889Z,99486.02
2018-02-13T00:38:55.748Z,99483.25
2018-02-13T00:41:24.489Z,99487.97
2018-02-13T00:43:52.791Z,99482.14
2018-02-13T00:46:21.044Z,99471.36
2018-02-13T00:48:48.599Z,99476.52
2018-02-13T00:51:16.466Z,99475.73
2018-02-13T00:53:46.652Z,99483.79
2018-02-13T00:56:14.453Z,99479.51
2018-02-13T00:58:42.058Z,99483.80
2018-02-13T01:01:09.721Z,99473.09
2018-02-13T01:03:37.495Z,99481.73
2018-02-13T01:06:05.690Z,99464.06
2018-02-13T01:08:33.234Z,99479.91
2018-02-13T01:11:00.776Z,99472.56
2018-02-13T01:13:28.670Z,99467.95
2018-02-13T01:15:56.198Z,99469.59
2018-02-13T01:18:24.276Z,99473.41
2018-02-13T01:20:51.846Z,99480.77
2018-02-13T01:23:20.005Z,99432.51
2018-02-13T01:25:47.733Z,99473.98
2018-02-13T01:28:15.284Z,99473.93
2018-02-13T01:30:42.890Z,99466.45
2018-02-13T01:33:10.437Z,99475.09
2018-02-13T01:35:43.789Z,99472.02
2018-02-13T01:38:12.018Z,99472.34
2018-02-13T01:40:39.897Z,99480.91
2018-02-13T01:43:07.582Z,99466.84
2018-02-13T01:45:35.299Z,99478.49
2018-02-13T01:48:02.976Z,99479.22
2018-02-13T01:50:30.635Z,99474.44
2018-02-13T01:52:58.254Z,99470.21
2018-02-13T01:55:25.938Z,99474.08
2018-02-13T01:57:53.624Z,99476.19
2018-02-13T02:00:21.163Z,99487.72
2018-02-13T02:02:48.766Z,99471.97
2018-02-13T02:05:16.297Z,99474.07
2018-02-13T02:07:43.867Z,99474.48
2018-02-13T02:10:11.420Z,99474.92
2018-02-13T02:12:38.974Z,99472.95
2018-02-13T02:15:06.556Z,99476.66
2018-02-13T02:17:34.080Z,99463.78
2018-02-13T02:20:01.654Z,99466.34
2018-02-13T02:22:29.181Z,99462.05
2018-02-13T02:24:56.734Z,99468.53
2018-02-13T02:27:24.334Z,99466.86
2018-02-13T02:29:51.940Z,99468.20
2018-02-13T02:32:20.442Z,99420.38
2018-02-13T02:34:47.966Z,99464.07
2018-02-13T02:37:15.523Z,99468.26
2018-02-13T02:39:43.152Z,99467.86
2018-02-13T02:42:10.704Z,99453.91
2018-02-13T02:44:38.271Z,99441.92
2018-02-13T02:47:05.907Z,99444.36
2018-02-13T02:49:33.434Z,99443.42
2018-02-13T02:52:01.011Z,99440.42
2018-02-13T02:54:28.615Z,99437.41
2018-02-13T02:56:56.273Z,99434.37
2018-02-13T02:59:23.834Z,99440.39
2018-02-13T03:01:51.368Z,99454.45
2018-02-13T03:04:18.921Z,99441.95
2018-02-13T03:06:46.442Z,99436.43
2018-02-13T03:09:13.994Z,99430.86
2018-02-13T03:11:41.557Z,99432.67
2018-02-13T03:14:09.105Z,99426.33
2018-02-13T03:16:36.635Z,99439.03
2018-02-13T03:19:04.184Z,99427.13
2018-02-13T03:21:31.714Z,99418.88
2018-02-13T03:23:59.313Z,99417.58
2018-02-13T03:26:26.840Z,99417.74
2018-02-13T03:28:54.365Z,99423.11
2018-02-13T03:31:21.929Z,99406.90
2018-02-13T03:33:49.447Z,99417.88
2018-02-13T03:36:17.017Z,99413.86
2018-02-13T03:38:44.577Z,99411.04
2018-02-13T03:41:12.249Z,99400.26
2018-02-13T03:43:39.785Z,99400.71
2018-02-13T03:46:07.459Z,99405.44
2018-02-13T03:48:35.067Z,99395.05
2018-02-13T03:51:02.726Z,99398.53
2018-02-13T03:53:31.469Z,99395.72
2018-02-13T03:56:00.870Z,99394.80
2018-02-13T03:58:30.238Z,99385.41
2018-02-13T04:00:57.835Z,99388.26
2018-02-13T04:03:25.402Z,99380.75
2018-02-13T04:05:52.952Z,99386.10
2018-02-13T04:08:20.724Z,99388.33
2018-02-13T04:10:49.607Z,99381.13
2018-02-13T04:13:17.134Z,99373.44
2018-02-13T04:15:44.762Z,99377.37
2018-02-13T04:18:12.295Z,99364.70
2018-02-13T04:20:39.846Z,99364.51
2018-02-13T04:23:07.402Z,99360.29
2018-02-13T04:25:34.976Z,99365.88
2018-02-13T04:28:02.522Z,99360.20
2018-02-13T04:30:30.194Z,99364.14
2018-02-13T04:32:57.852Z,99362.92
2018-02-13T04:35:25.449Z,99362.02
2018-02-13T04:37:52.981Z,99356.92
2018-02-13T04:40:20.830Z,99364.17
2018-02-13T04:42:48.505Z,99376.25
2018-02-13T04:45:16.063Z,99365.11
2018-02-13T04:47:43.637Z,99362.61
2018-02-13T04:50:11.168Z,99362.73
2018-02-13T04:52:38.798Z,99348.36
2018-02-13T04:55:06.303Z,99354.70
2018-02-13T04:57:33.951Z,99356.42
2018-02-13T05:00:01.479Z,99353.27
2018-02-13T05:02:29.073Z,99356.17
2018-02-13T05:04:56.732Z,99350.34
2018-02-13T05:07:24.261Z,99352.86
2018-02-13T05:09:51.810Z,99347.61
2018-02-13T05:12:19.336Z,99348.84
2018-02-13T05:14:46.890Z,99358.28
2018-02-13T05:17:14.418Z,99350.58
2018-02-13T05:19:42.001Z,99351.89
2018-02-13T05:22:09.596Z,99346.91
2018-02-13T05:24:37.150Z,99356.70
2018-02-13T05:27:04.674Z,99339.18
2018-02-13T05:29:32.253Z,99345.20
2018-02-13T05:31:59.805Z,99334.41
2018-02-13T05:34:27.454Z,99334.38
2018-02-13T05:36:55.011Z,99333.13
2018-02-13T05:39:22.564Z,99334.47
2018-02-13T05:41:51.142Z,99300.34
2018-02-13T05:44:18.720Z,99325.86
2018-02-13T05:46:46.294Z,99334.38
2018-02-13T05:49:13.823Z,99327.54
2018-02-13T05:51:41.383Z,99321.61
2018-02-13T05:54:08.926Z,99315.23
2018-02-13T05:56:36.555Z,99313.98
2018-02-13T05:59:04.174Z,99316.50
2018-02-13T06:01:31.781Z,99313.11
2018-02-13T06:03:59.388Z,99318.77
2018-02-13T06:06:26.914Z,99323.97
2018-02-13T06:08:54.504Z,99319.19
2018-02-13T06:11:22.119Z,99310.50
2018-02-13T06:13:49.726Z,99305.63
2018-02-13T06:16:17.275Z,99305.08
2018-02-13T06:18:44.853Z,99296.47
2018-02-13T06:21:12.377Z,99294.51
2018-02-13T06:23:39.962Z,99300.92
2018-02-13T06:26:07.490Z,99293.58
2018-02-13T06:28:35.089Z,99294.32
2018-02-13T06:31:02.722Z,99302.69
2018-02-13T06:33:30.261Z,99291.84
2018-02-13T06:35:57.843Z,99288.97
2018-02-13T06:38:25.422Z,99295.27
2018-02-13T06:40:53.072Z,99287.48
2018-02-13T06:43:20.649Z,99291.88
2018-02-13T06:45:48.399Z,99287.64
2018-02-13T06:48:15.924Z,99290.11
2018-02-13T06:50:43.628Z,99291.73
2018-02-13T06:53:11.154Z,99283.30
2018-02-13T06:55:38.683Z,99284.02
2018-02-13T06:58:06.298Z,99285.88
2018-02-13T07:00:33.810Z,99277.80
2018-02-13T07:03:01.368Z,99279.06
2018-02-13T07:05:28.945Z,99288.36
2018-02-13T07:07:56.493Z,99281.96
2018-02-13T07:10:24.102Z,99278.90
2018-02-13T07:12:52.492Z,99283.27
2018-02-13T07:15:20.072Z,99277.09
2018-02-13T07:17:47.626Z,99285.18
2018-02-13T07:20:15.221Z,99291.64
2018-02-13T07:22:42.806Z,99279.20
2018-02-13T07:25:10.346Z,99290.41
2018-02-13T07:27:37.941Z,99282.63
2018-02-13T07:30:05.630Z,99281.20
2018-02-13T07:32:33.267Z,99284.62
2018-02-13T07:35:00.924Z,99281.57
2018-02-13T07:37:28.536Z,99271.22
2018-02-13T07:39:58.035Z,99274.21
2018-02-13T07:42:25.574Z,99274.27
2018-02-13T07:44:53.156Z,99264.71
2018-02-13T07:47:20.899Z,99271.09
2018-02-13T07:49:48.533Z,99268.05
2018-02-13T07:52:16.077Z,99271.03
2018-02-13T07:54:43.638Z,99265.90
2018-02-13T07:57:11.187Z,99276.86
2018-02-13T07:59:38.771Z,99264.77
2018-02-13T08:02:06.444Z,99258.61
2018-02-13T08:04:33.996Z,99265.70
2018-02-13T08:07:01.566Z,99263.86
2018-02-13T08:09:29.099Z,99272.31
2018-02-13T08:11:56.772Z,99260.67
2018-02-13T08:14:24.683Z,99268.27
2018-02-13T08:16:53.952Z,99274.80
2018-02-13T08:19:26.237Z,99268.14
2018-02-13T08:21:54.059Z,99275.69
2018-02-13T08:24:22.527Z,99267.58
2018-02-13T08:26:51.266Z,99254.94
2018-02-13T08:29:18.845Z,99262.39
2018-02-13T08:31:46.369Z,99251.82
2018-02-13T08:34:14.024Z,99248.30
2018-02-13T08:36:41.551Z,99239.12
2018-02-13T08:39:09.105Z,99235.98
2018-02-13T08:41:36.703Z,99237.20
2018-02-13T08:44:04.779Z,99234.00
2018-02-13T08:46:32.310Z,99235.26
2018-02-13T08:48:59.958Z,99237.73
2018-02-13T08:51:29.761Z,99231.31
2018-02-13T08:53:58.617Z,99226.91
2018-02-13T08:56:26.157Z,99223.70
2018-02-13T08:58:53.693Z,99224.08
2018-02-13T09:01:21.245Z,99222.20
2018-02-13T09:03:50.178Z,99212.94
2018-02-13T09:06:17.730Z,99218.88
2018-02-13T09:08:45.278Z,99210.61
2018-02-13T09:11:12.851Z,99206.56
2018-02-13T09:13:40.412Z,99204.35
2018-02-13T09:16:09.322Z,99205.48
2018-02-13T09:18:36.882Z,99190.55
2018-02-13T09:21:04.915Z,99196.89
2018-02-13T09:23:33.125Z,99186.87
2018-02-13T09:26:00.688Z,99179.33
2018-02-13T09:28:28.523Z,99174.02
2018-02-13T09:30:56.791Z,99170.59
2018-02-13T09:33:24.403Z,99163.88
2018-02-13T09:35:52.017Z,99169.56
2018-02-13T09:38:19.831Z,99157.30
2018-02-13T09:40:47.633Z,99159.90
2018-02-13T09:43:15.286Z,99156.11
2018-02-13T09:45:42.866Z,99154.81
2018-02-13T09:48:10.389Z,99155.58
2018-02-13T09:50:38.362Z,99148.06
2018-02-13T09:53:05.890Z,99150.42
2018-02-13T09:55:33.622Z,99151.72
2018-02-13T09:58:01.145Z,99147.02
2018-02-13T10:00:31.268Z,99142.22
2018-02-13T10:02:59.468Z,99141.88
2018-02-13T10:05:27.762Z,99147.56
2018-02-13T10:07:55.862Z,99138.70
2018-02-13T10:10:36.815Z,99128.80
2018-02-13T10:13:05.113Z,99128.27
2018-02-13T10:15:32.697Z,99139.67
2018-02-13T10:18:00.267Z,99125.89
2018-02-13T10:20:28.369Z,99127.69
2018-02-13T10:22:56.023Z,99120.77
2018-02-13T10:25:23.603Z,99118.71
2018-02-13T10:27:51.150Z,99111.41
2018-02-13T10:30:18.830Z,99108.80
2018-02-13T10:32:46.380Z,99101.23
2018-02-13T10:35:13.930Z,99104.66
2018-02-13T10:37:41.536Z,99086.77
2018-02-13T10:40:09.037Z,99093.67
2018-02-13T10:42:36.674Z,99101.02
2018-02-13T10:45:05.214Z,99088.77
2018-02-13T10:47:32.744Z,99080.11
2018-02-13T10:50:00.296Z,99087.50
2018-02-13T10:52:33.102Z,99088.52
2018-02-13T10:55:00.703Z,99080.80
2018-02-13T10:57:28.226Z,99078.83
2018-02-13T10:59:57.450Z,99084.44
2018-02-13T11:02:25.079Z,99071.30
2018-02-13T11:04:52.626Z,99065.03
2018-02-13T11:07:20.166Z,99051.66
2018-02-13T11:09:47.735Z,99049.31
2018-02-13T11:12:15.242Z,99052.42
2018-02-13T11:14:42.821Z,99037.74
2018-02-13T11:17:12.518Z,99042.32
2018-02-13T11:19:40.226Z,99040.75
2018-02-13T11:22:07.947Z,99034.73
2018-02-13T11:24:35.475Z,99016.63
2018-02-13T11:27:04.430Z,99014.69
2018-02-13T11:29:31.959Z,99012.09
2018-02-13T11:31:59.510Z,99014.42
2018-02-13T11:34:27.003Z,99009.87
2018-02-13T11:36:54.542Z,98999.47
2018-02-13T11:39:22.063Z,98995.52
2018-02-13T11:41:49.593Z,99005.52
2018-02-13T11:46:46.705Z,98992.72
2018-02-13T11:49:14.317Z,98990.91
2018-02-13T11:51:44.373Z,98977.85
2018-02-13T11:54:12.155Z,98976.57
2018-02-13T11:56:39.682Z,98968.34
2018-02-13T11:59:07.227Z,98966.11
2018-02-13T12:01:34.739Z,98965.99
2018-02-13T12:04:04.090Z,98959.83
2018-02-13T12:06:31.696Z,98961.53
2018-02-13T12:08:59.240Z,98953.02
2018-02-13T12:11:27.435Z,98959.11
2018-02-13T12:13:55.131Z,98942.29
2018-02-13T12:16:22.694Z,98953.84
2018-02-13T12:18:50.204Z,98939.38
2018-02-13T12:21:17.815Z,98931.73
2018-02-13T12:23:45.331Z,98913.19
2018-02-13T12:26:15.311Z,98921.41
2018-02-13T12:28:43.010Z,98916.53
2018-02-13T12:31:10.562Z,98911.67
2018-02-13T12:33:38.090Z,98906.58
2018-02-13T12:36:06.409Z,98899.95
2018-02-13T12:38:33.971Z,98896.03
2018-02-13T12:41:01.497Z,98880.73
2018-02-13T12:43:29.050Z,98875.95
2018-02-13T12:45:56.576Z,98875.01
2018-02-13T12:48:24.256Z,98872.39
2018-02-13T12:50:51.756Z,98872.19
2018-02-13T12:53:19.259Z,98865.54
2018-02-13T12:55:46.811Z,98865.72
2018-02-13T12:58:14.362Z,98863.65
2018-02-13T13:00:42.187Z,98863.81
2018-02-13T13:03:09.717Z,98856.84
2018-02-13T13:05:37.296Z,98852.95
2018-02-13T13:08:04.922Z,98851.41
2018-02-13T13:10:32.474Z,98843.06
2018-02-13T13:13:00.327Z,98831.64
2018-02-13T13:15:27.930Z,98838.09
2018-02-13T13:17:55.431Z,98836.28
2018-02-13T13:20:25.566Z,98845.53
2018-02-13T13:22:53.198Z,98830.31
2018-02-13T13:25:20.741Z,98827.70
2018-02-13T13:27:53.920Z,98820.67
2018-02-13T13:30:21.542Z,98817.51
2018-02-13T13:32:49.206Z,98819.29
2018-02-13T13:35:18.443Z,98810.59
2018-02-13T13:37:45.999Z,98801.09
2018-02-13T13:40:14.673Z,98803.76
2018-02-13T13:42:42.256Z,98798.77
2018-02-13T13:45:09.774Z,98805.47
2018-02-13T13:47:37.334Z,98803.90
2018-02-13T13:50:04.940Z,98790.27
2018-02-13T13:52:32.463Z,98791.20
2018-02-13T13:55:00.333Z,98786.95
2018-02-13T13:57:27.880Z,98780.13
2018-02-13T13:59:55.419Z,98767.81
2018-02-13T14:02:24.839Z,98777.02
2018-02-13T14:04:52.650Z,98766.66
2018-02-13T14:07:20.682Z,98762.41
2018-02-13T14:09:49.651Z,98764.16
2018-02-13T14:12:17.202Z,98753.30
2018-02-13T14:14:44.781Z,98752.69
2018-02-13T14:17:12.385Z,98757.74
2018-02-13T14:19:39.904Z,98740.50
2018-02-13T14:22:07.439Z,98748.02
2018-02-13T14:24:34.943Z,98754.30
2018-02-13T14:27:02.593Z,98748.85
2018-02-13T14:29:30.117Z,98739.50
2018-02-13T14:31:57.726Z,98742.53
2018-02-13T14:34:25.250Z,98736.02
2018-02-13T14:36:53.261Z,98739.70
2018-02-13T14:39:21.474Z,98738.39
2018-02-13T14:41:48.982Z,98729.42
2018-02-13T14:44:16.534Z,98730.31
2018-02-13T14:46:44.065Z,98729.17
2018-02-13T14:49:11.645Z,98730.23
2018-02-13T14:51:39.170Z,98726.63
2018-02-13T14:54:07.121Z,98728.90
2018-02-13T14:56:39.821Z,98722.59
2018-02-13T14:59:07.674Z,98721.52
2018-02-13T15:01:36.349Z,98719.69
2018-02-13T15:04:03.902Z,98713.00
2018-02-13T15:06:32.134Z,98715.32
2018-02-13T15:08:59.721Z,98708.67
2018-02-13T15:11:27.762Z,98707.06
2018-02-13T15:13:55.288Z,98711.76
2018-02-13T15:16:22.892Z,98710.66
2018-02-13T15:18:50.392Z,98710.84
2018-02-13T15:21:18.143Z,98717.53
2018-02-13T15:23:46.105Z,98709.31
2018-02-13T15:26:13.698Z,98701.26
2018-02-13T15:28:41.224Z,98698.30
2018-02-13T15:31:08.794Z,98699.14
2018-02-13T15:33:37.277Z,98701.28
2018-02-13T15:36:04.784Z,98698.46
2018-02-13T15:38:32.335Z,98701.20
2018-02-13T15:40:59.862Z,98696.41
2018-02-13T15:43:27.467Z,98701.99
2018-02-13T15:45:54.990Z,98708.20
2018-02-13T15:48:22.569Z,98702.14
2018-02-13T15:50:50.071Z,98697.59
2018-02-13T15:53:17.586Z,98697.50
2018-02-13T15:55:45.151Z,98693.02
2018-02-13T15:58:12.729Z,98701.42
2018-02-13T16:00:40.281Z,98691.67
2018-02-13T16:03:08.657Z,98696.92
2018-02-13T16:05:36.195Z,98700.30
2018-02-13T16:08:03.737Z,98691.19
2018-02-13T16:10:31.868Z,98691.50
2018-02-13T16:12:59.458Z,98698.42
2018-02-13T16:15:27.023Z,98695.11
2018-02-13T16:17:54.796Z,98696.84
2018-02-13T16:20:24.200Z,98696.05
2018-02-13T16:22:52.800Z,98694.26
2018-02-13T16:25:20.831Z,98694.96
2018-02-13T16:27:49.777Z,98697.39
2018-02-13T16:30:18.046Z,98708.60
2018-02-13T16:32:46.759Z,98705.19
2018-02-13T16:35:14.564Z,98705.80
2018-02-13T16:37:42.359Z,98712.98
2018-02-13T16:40:11.702Z,98706.84
2018-02-13T16:42:39.343Z,98703.64
2018-02-13T16:45:07.850Z,98704.42
2018-02-13T16:47:36.373Z,98709.30
2018-02-13T16:50:03.898Z,98703.64
2018-02-13T16:52:31.424Z,98710.00
2018-02-13T16:54:59.792Z,98707.95
2018-02-13T16:57:27.308Z,98703.30
2018-02-13T16:59:55.209Z,98699.63
2018-02-13T17:02:23.050Z,98703.47
2018-02-13T17:04:50.739Z,98703.49
2018-02-13T17:07:18.488Z,98701.30
2018-02-13T17:09:46.446Z,98698.48
2018-02-13T17:12:13.996Z,98711.39
2018-02-13T17:14:42.217Z,98704.48
2018-02-13T17:17:10.462Z,98705.25
2018-02-13T17:19:38.337Z,98704.39
2018-02-13T17:22:08.784Z,98703.83
2018-02-13T17:24:36.539Z,98702.41
2018-02-13T17:27:04.546Z,98706.03
2018-02-13T17:29:32.563Z,98705.77
2018-02-13T17:32:00.233Z,98700.92
2018-02-13T17:34:28.116Z,98708.02
2018-02-13T17:36:56.123Z,98710.57
2018-02-13T17:39:24.186Z,98702.52
2018-02-13T17:41:52.322Z,98707.44
2018-02-13T17:44:21.836Z,98702.81
2018-02-13T17:46:51.583Z,98706.66
2018-02-13T17:49:19.397Z,98700.34
2018-02-13T17:51:47.488Z,98706.08
2018-02-13T17:54:15.096Z,98712.05
2018-02-13T17:56:42.829Z,98710.48
2018-02-13T17:59:10.661Z,98709.12
2018-02-13T18:01:38.190Z,98712.80
2018-02-13T18:04:06.592Z,98714.11
2018-02-13T18:06:36.274Z,98715.75
2018-02-13T18:09:06.812Z,98715.91
2018-02-13T18:11:35.317Z,98713.87
2018-02-13T18:14:04.880Z,98705.52
2018-02-13T18:16:34.057Z,98707.38
2018-02-13T18:19:02.927Z,98721.27
2018-02-13T18:21:30.733Z,98708.17
2018-02-13T18:24:03.300Z,98710.33
2018-02-13T18:26:33.624Z,98711.26
2018-02-13T18:29:03.083Z,98714.59
2018-02-13T18:31:31.295Z,98717.34
2018-02-13T18:34:00.815Z,98704.66
2018-02-13T18:36:28.477Z,98717.80
2018-02-13T18:38:56.838Z,98708.40
2018-02-13T18:41:26.477Z,98714.25
2018-02-13T18:43:56.654Z,98712.68
2018-02-13T18:46:25.134Z,98713.67
2018-02-13T18:48:52.983Z,98717.63
2018-02-13T18:51:21.006Z,98720.81
2018-02-13T18:53:48.590Z,98718.05
2018-02-13T18:56:16.111Z,98713.67
2018-02-13T18:58:43.675Z,98720.75
2018-02-13T19:01:11.196Z,98727.83
2018-02-13T19:03:38.755Z,98719.49
2018-02-13T19:06:06.333Z,98719.53
2018-02-13T19:08:33.882Z,98722.81
2018-02-13T19:11:01.405Z,98723.84
2018-02-13T19:13:28.983Z,98724.05
2018-02-13T19:15:56.510Z,98723.68
2018-02-13T19:18:24.111Z,98719.64
2018-02-13T19:20:51.639Z,98721.18
2018-02-13T19:23:19.170Z,98721.56
2018-02-13T19:25:46.716Z,98723.31
2018-02-13T19:28:14.270Z,98714.40
2018-02-13T19:30:41.851Z,98734.30
2018-02-13T19:33:09.395Z,98714.19
2018-02-13T19:35:37.029Z,98722.64
2018-02-13T19:38:04.555Z,98732.46
2018-02-13T19:40:32.131Z,98726.13
2018-02-13T19:42:59.683Z,98729.88
2018-02-13T19:45:27.236Z,98739.59
2018-02-13T19:47:54.795Z,98731.91
2018-02-13T19:50:22.337Z,98739.15
2018-02-13T19:52:49.895Z,98741.01
2018-02-13T19:55:17.427Z,98745.14
2018-02-13T19:57:45.078Z,98754.97
2018-02-13T20:00:12.609Z,98755.46
2018-02-13T20:02:40.270Z,98755.23
2018-02-13T20:05:08.306Z,98760.59
2018-02-13T20:07:36.207Z,98755.31
2018-02-13T20:10:05.509Z,98763.39
2018-02-13T20:12:33.262Z,98764.02
2018-02-13T20:15:00.831Z,98755.50
2018-02-13T20:17:28.422Z,98756.23
2018-02-13T20:19:55.994Z,98747.16
2018-02-13T20:22:23.534Z,98763.28
2018-02-13T20:24:51.099Z,98757.86
2018-02-13T20:27:18.625Z,98758.81
2018-02-13T20:29:46.255Z,98759.47
2018-02-13T20:32:13.778Z,98755.38
2018-02-13T20:34:41.310Z,98753.19
2018-02-13T20:37:08.947Z,98747.11
2018-02-13T20:39:36.566Z,98753.48
2018-02-13T20:42:04.138Z,98755.98
2018-02-13T20:44:31.665Z,98757.48
2018-02-13T20:46:59.307Z,98762.66
2018-02-13T20:49:26.865Z,98762.09
2018-02-13T20:51:54.524Z,98762.47
2018-02-13T20:54:22.049Z,98765.84
2018-02-13T20:56:49.651Z,98773.53
2018-02-13T20:59:17.207Z,98781.23
2018-02-13T21:01:44.758Z,98782.04
2018-02-13T21:04:13.008Z,98785.62
2018-02-13T21:06:40.612Z,98789.34
2018-02-13T21:09:08.568Z,98763.83
2018-02-13T21:11:36.115Z,98803.32
2018-02-13T21:14:03.762Z,98787.89
2018-02-13T21:16:32.473Z,98790.16
2018-02-13T21:19:00.172Z,98805.89
2018-02-13T21:21:28.522Z,98798.55
2018-02-13T21:23:56.077Z,98796.25
2018-02-13T21:26:23.631Z,98789.11
2018-02-13T21:28:51.398Z,98812.72
2018-02-13T21:31:18.983Z,98797.52
2018-02-13T21:33:46.596Z,98798.55
2018-02-13T21:36:14.903Z,98810.42
2018-02-13T21:38:42.476Z,98799.24
2018-02-13T21:41:10.147Z,98807.56
2018-02-13T21:43:38.903Z,98773.82
2018-02-13T21:46:07.750Z,98794.55
2018-02-13T21:48:37.548Z,98797.05
2018-02-13T21:51:05.251Z,98793.21
2018-02-13T21:53:33.776Z,98794.18
2018-02-13T21:56:01.309Z,98796.48
2018-02-13T21:58:28.969Z,98792.06
2018-02-13T22:00:56.510Z,98798.26
2018-02-13T22:03:24.091Z,98795.16
2018-02-13T22:05:51.661Z,98798.05
2018-02-13T22:08:22.041Z,98797.23
2018-02-13T22:10:49.972Z,98798.89
2018-02-13T22:13:17.772Z,98803.49
2018-02-13T22:15:46.404Z,98806.77
2018-02-13T22:18:16.844Z,98801.52
2018-02-13T22:20:44.480Z,98802.04
2018-02-13T22:23:12.150Z,98804.42
2018-02-13T22:25:39.712Z,98805.33
2018-02-13T22:28:07.361Z,98807.84
2018-02-13T22:30:34.941Z,98811.51
2018-02-13T22:33:02.466Z,98812.34
2018-02-13T22:35:31.014Z,98816.11
2018-02-13T22:37:58.990Z,98823.36
2018-02-13T22:40:27.922Z,98823.55
2018-02-13T22:42:55.473Z,98827.67
2018-02-13T22:45:23.897Z,98830.98
2018-02-13T22:47:51.502Z,98828.63
2018-02-13T22:50:19.081Z,98830.43
2018-02-13T22:52:46.753Z,98831.30
2018-02-13T22:55:14.288Z,98829.20
2018-02-13T22:57:42.066Z,98840.88
2018-02-13T23:00:13.270Z,98841.63
2018-02-13T23:02:42.017Z,98846.66
2018-02-13T23:05:12.137Z,98841.27
2018-02-13T23:07:41.483Z,98848.94
2018-02-13T23:10:10.204Z,98846.52
2018-02-13T23:12:38.242Z,98839.11
2018-02-13T23:15:07.380Z,98853.78
2018-02-13T23:17:37.202Z,98849.92
2018-02-13T23:20:05.255Z,98849.63
2018-02-13T23:22:33.185Z,98855.10
2018-02-13T23:25:01.593Z,98865.31
2018-02-13T23:27:30.962Z,98856.87
2018-02-13T23:29:59.288Z,98859.80
2018-02-13T23:32:26.844Z,98863.15
2018-02-13T23:34:54.398Z,98875.41
2018-02-13T23:37:23.567Z,98864.02
2018-02-13T23:39:52.166Z,98864.23
2018-02-13T23:42:21.255Z,98885.97
2018-02-13T23:44:49.256Z,98878.61
2018-02-13T23:47:19.010Z,98883.09
2018-02-13T23:49:47.854Z,98877.45
2018-02-13T23:52:15.917Z,98883.98
2018-02-13T23:54:44.866Z,98885.89
2018-02-13T23:57:14.513Z,98884.62
2018-02-13T23:59:42.271Z,98879.22
